This is the latest recevied weather packets stored in our database for station/object HI8S-13. If no packets are shown the sender has not sent any weather packets the latest 10 day(s).
| Time | Temp. | Humidity | Pressure | Rain* | Wind** | Luminosity | Snow |
|---|---|---|---|---|---|---|---|
| 1778165308 | 31.11° C | 66% | 1017.1 hPa | 0 mm | - | - | - |
| 1778165013 | 31.11° C | 66% | 1017.1 hPa | 0 mm | - | - | - |
| 1778164709 | 30.56° C | 68% | 1017.1 hPa | 0 mm | - | - | - |
| 1778164412 | 30° C | 68% | 1017 hPa | 0 mm | - | - | - |
| 1778164110 | 30° C | 69% | 1017.1 hPa | 0 mm | - | - | - |
| 1778163807 | 30° C | 70% | 1017.1 hPa | 0 mm | - | - | - |
| 1778163512 | 30° C | 70% | 1017.1 hPa | 0 mm | - | - | - |
| 1778163210 | 30° C | 70% | 1017.1 hPa | 0 mm | - | - | - |
| 1778162908 | 30.56° C | 68% | 1017.1 hPa | 0 mm | - | - | - |
| 1778162613 | 30.56° C | 67% | 1017.2 hPa | 0 mm | - | - | - |
| 1778162308 | 30.56° C | 68% | 1017.4 hPa | 0 mm | - | - | - |
| 1778162013 | 30.56° C | 69% | 1017.3 hPa | 0 mm | - | - | - |
| 1778161709 | 30° C | 69% | 1017.3 hPa | 0 mm | - | - | - |
| 1778161414 | 30° C | 70% | 1017.3 hPa | 0 mm | - | - | - |
| 1778161120 | 29.44° C | 74% | 1017.3 hPa | 0 mm | - | - | - |
| 1778160823 | 28.89° C | 76% | 1017.3 hPa | 0 mm | - | - | - |
| 1778160507 | 28.89° C | 76% | 1017.4 hPa | 0 mm | - | - | - |
| 1778160212 | 28.89° C | 77% | 1017.2 hPa | 0 mm | - | - | - |
| 1778159918 | 28.89° C | 77% | 1017.3 hPa | 0 mm | - | - | - |
| 1778159623 | 28.89° C | 78% | 1017.3 hPa | 0 mm | - | - | - |
| 1778159307 | 28.33° C | 78% | 1017.3 hPa | 0 mm | - | - | - |
| 1778159025 | 28.33° C | 79% | 1017.3 hPa | 0 mm | - | - | - |
| 1778158708 | 28.33° C | 79% | 1017.3 hPa | 0 mm | - | - | - |
| 1778158413 | 28.33° C | 79% | 1017.3 hPa | 0 mm | - | - | - |
| 1778158119 | 27.78° C | 80% | 1017.2 hPa | 0 mm | - | - | - |
* Rain latest hour (hover to see other rain measurements)
** Current wind speed in m/s (hover to see current wind gust speed)